createdAt,value
2022-11-11T00:00:27.407Z,1.87
2022-11-11T00:05:29.484Z,2.17
2022-11-11T00:10:31.899Z,2.90
2022-11-11T00:15:39.110Z,2.00
2022-11-11T00:21:00.118Z,2.20
2022-11-11T00:26:32.632Z,2.13
2022-11-11T00:31:24.011Z,2.17
2022-11-11T00:36:26.574Z,2.30
2022-11-11T00:41:28.397Z,2.20
2022-11-11T00:46:48.347Z,2.40
2022-11-11T00:51:50.156Z,2.20
2022-11-11T00:56:51.982Z,2.03
2022-11-11T01:01:53.893Z,2.80
2022-11-11T01:06:55.711Z,2.23
2022-11-11T01:11:57.551Z,2.20
2022-11-11T01:16:59.330Z,2.27
2022-11-11T01:22:02.219Z,2.60
2022-11-11T01:27:04.351Z,2.33
2022-11-11T01:32:06.153Z,2.27
2022-11-11T01:37:07.880Z,3.00
2022-11-11T01:42:09.688Z,2.30
2022-11-11T01:47:11.759Z,2.27
2022-11-11T01:52:34.089Z,2.10
2022-11-11T01:58:03.301Z,2.73
2022-11-11T02:03:10.179Z,2.37
2022-11-11T02:08:37.401Z,2.67
2022-11-11T02:14:02.102Z,2.13
2022-11-11T02:19:04.185Z,2.30
2022-11-11T02:24:22.366Z,2.10
2022-11-11T02:29:24.920Z,2.10
2022-11-11T02:34:35.122Z,3.17
2022-11-11T02:40:03.072Z,2.77
2022-11-11T02:45:07.016Z,2.60
2022-11-11T02:50:09.567Z,2.53
2022-11-11T02:55:12.908Z,2.70
2022-11-11T03:00:16.545Z,2.53
2022-11-11T03:05:18.749Z,2.67
2022-11-11T03:10:20.948Z,2.37
2022-11-11T03:15:23.661Z,2.00
2022-11-11T03:20:44.672Z,2.30
2022-11-11T03:25:48.341Z,2.30
2022-11-11T03:30:50.694Z,2.60
2022-11-11T03:35:52.423Z,2.30
2022-11-11T03:40:58.224Z,2.47
2022-11-11T03:46:05.830Z,2.47
2022-11-11T03:51:07.747Z,2.80
2022-11-11T03:56:09.455Z,2.60
2022-11-11T04:01:31.243Z,2.00
2022-11-11T04:06:52.140Z,2.57
2022-11-11T04:11:54.219Z,2.37
2022-11-11T04:16:56.911Z,2.80
2022-11-11T04:21:59.099Z,2.73
2022-11-11T04:27:05.367Z,2.17
2022-11-11T04:32:38.546Z,2.00
2022-11-11T04:37:50.351Z,2.20
2022-11-11T04:42:55.350Z,2.97
2022-11-11T04:48:10.432Z,2.23
2022-11-11T04:53:15.980Z,1.80
2022-11-11T04:58:23.735Z,2.23
2022-11-11T05:03:26.157Z,1.97
2022-11-11T05:08:46.854Z,2.10
2022-11-11T05:14:07.717Z,2.33
2022-11-11T05:19:33.767Z,2.57
2022-11-11T05:24:54.106Z,2.40
2022-11-11T05:29:56.148Z,3.00
2022-11-11T05:34:58.166Z,2.30
2022-11-11T05:40:00.004Z,2.50
2022-11-11T05:45:02.193Z,2.50
2022-11-11T05:50:04.324Z,2.47
2022-11-11T05:55:07.051Z,2.90
2022-11-11T06:00:10.394Z,3.03
2022-11-11T06:05:12.242Z,2.17
2022-11-11T06:10:32.385Z,2.17
2022-11-11T06:15:39.555Z,2.63
2022-11-11T06:20:41.338Z,2.60
2022-11-11T06:26:01.448Z,2.50
2022-11-11T06:31:05.008Z,2.10
2022-11-11T06:36:08.169Z,3.03
2022-11-11T06:41:12.836Z,2.53
2022-11-11T06:46:25.913Z,1.77
2022-11-11T06:51:27.638Z,2.53
2022-11-11T06:56:29.367Z,2.37
2022-11-11T07:01:31.438Z,2.33
2022-11-11T07:06:33.252Z,2.53
2022-11-11T07:11:34.983Z,2.10
2022-11-11T07:16:36.695Z,3.17
2022-11-11T07:21:38.438Z,2.67
2022-11-11T07:26:40.309Z,2.80
2022-11-11T07:31:42.471Z,2.73
2022-11-11T07:36:44.271Z,2.43
2022-11-11T07:41:46.032Z,3.00
2022-11-11T07:46:47.763Z,2.53
2022-11-11T07:51:49.497Z,2.47
2022-11-11T07:56:51.891Z,2.27
2022-11-11T08:01:53.661Z,2.20
2022-11-11T08:06:55.471Z,2.60
2022-11-11T08:12:20.936Z,2.20
2022-11-11T08:17:23.897Z,2.47
2022-11-11T08:22:25.854Z,2.47
2022-11-11T08:27:27.534Z,3.00
2022-11-11T08:32:30.015Z,2.40
2022-11-11T08:37:31.883Z,2.40
2022-11-11T08:42:33.597Z,2.50
2022-11-11T08:47:36.848Z,3.53
2022-11-11T08:52:39.395Z,2.70
2022-11-11T08:57:41.632Z,2.73
2022-11-11T09:02:43.331Z,2.10
2022-11-11T09:07:45.281Z,2.00
2022-11-11T09:12:47.169Z,2.20
2022-11-11T09:17:48.894Z,2.60
2022-11-11T09:22:51.611Z,2.20
2022-11-11T09:28:01.345Z,2.80
2022-11-11T09:33:05.159Z,2.03
2022-11-11T09:38:10.049Z,2.67
2022-11-11T09:43:40.272Z,2.87
2022-11-11T09:49:40.242Z,2.20
2022-11-11T09:54:58.938Z,1.70
2022-11-11T10:00:07.208Z,2.40
2022-11-11T10:05:19.586Z,2.57
2022-11-11T10:10:48.830Z,2.53
2022-11-11T10:16:44.944Z,1.77
2022-11-11T10:22:12.815Z,2.47
2022-11-11T10:27:22.019Z,1.90
2022-11-11T10:32:30.164Z,1.70
2022-11-11T10:37:41.869Z,2.90
2022-11-11T10:42:44.230Z,1.80
2022-11-11T10:48:07.183Z,2.07
2022-11-11T10:53:26.980Z,3.00
2022-11-11T10:58:42.937Z,1.83
2022-11-11T11:03:55.436Z,2.20
2022-11-11T11:09:23.325Z,1.97
2022-11-11T11:14:35.235Z,1.73
2022-11-11T11:19:37.015Z,2.00
2022-11-11T11:24:43.697Z,1.63
2022-11-11T11:29:46.033Z,1.20
2022-11-11T11:34:55.044Z,3.40
2022-11-11T11:40:07.961Z,1.83
2022-11-11T11:45:29.824Z,1.50
2022-11-11T11:50:46.185Z,1.50
2022-11-11T11:56:54.959Z,1.30
2022-11-11T12:02:29.954Z,1.10
2022-11-11T12:08:26.703Z,1.23
2022-11-11T12:14:10.841Z,1.40
2022-11-11T12:19:57.797Z,1.20
2022-11-11T12:25:19.212Z,1.20
2022-11-11T12:30:28.723Z,1.53
2022-11-11T12:36:14.583Z,1.23
2022-11-11T12:41:52.398Z,1.13
2022-11-11T12:47:34.848Z,1.03
2022-11-11T12:52:57.124Z,1.10
2022-11-11T12:58:15.274Z,1.10
2022-11-11T13:03:53.067Z,1.03
2022-11-11T13:09:31.429Z,1.50
2022-11-11T13:14:43.192Z,1.40
2022-11-11T13:20:03.829Z,1.30
2022-11-11T13:25:14.304Z,1.27
2022-11-11T13:31:04.795Z,1.10
2022-11-11T13:36:12.970Z,1.23
2022-11-11T13:41:27.356Z,1.00
2022-11-11T13:46:47.074Z,0.90
2022-11-11T13:52:04.989Z,1.00
2022-11-11T13:57:26.879Z,1.50
2022-11-11T14:02:34.268Z,1.90
2022-11-11T14:07:47.167Z,1.30
2022-11-11T14:13:14.716Z,1.60
2022-11-11T14:18:16.280Z,1.40
2022-11-11T14:23:34.527Z,1.23
2022-11-11T14:29:06.508Z,1.57
2022-11-11T14:34:42.553Z,1.40
2022-11-11T14:39:56.201Z,1.40
2022-11-11T14:44:58.109Z,1.40
2022-11-11T14:50:01.324Z,2.87
2022-11-11T14:55:03.115Z,1.80
2022-11-11T15:00:30.170Z,1.67
2022-11-11T15:06:05.397Z,1.53
2022-11-11T15:11:29.999Z,1.20
2022-11-11T15:17:32.352Z,1.70
2022-11-11T15:22:51.027Z,1.77
2022-11-11T15:28:24.185Z,1.60
2022-11-11T15:34:05.489Z,1.53
2022-11-11T15:39:18.557Z,1.90
2022-11-11T15:44:28.541Z,1.93
2022-11-11T15:49:46.955Z,1.97
2022-11-11T15:54:51.186Z,2.30
2022-11-11T15:59:58.468Z,2.20
2022-11-11T16:05:16.445Z,10.77
2022-11-11T16:10:39.755Z,2.27
2022-11-11T16:16:06.185Z,2.00
2022-11-11T16:21:55.165Z,2.20
2022-11-11T16:26:58.780Z,2.47
2022-11-11T16:32:00.892Z,2.13
2022-11-11T16:37:09.772Z,2.23
2022-11-11T16:42:25.157Z,2.27
2022-11-11T16:47:32.980Z,2.53
2022-11-11T16:52:55.727Z,2.97
2022-11-11T16:58:22.859Z,7.17
2022-11-11T17:03:26.241Z,2.80
2022-11-11T17:08:46.313Z,2.57
2022-11-11T17:13:48.052Z,5.27
2022-11-11T17:18:49.977Z,2.63
2022-11-11T17:23:53.697Z,3.80
2022-11-11T17:28:56.587Z,3.10
2022-11-11T17:33:58.495Z,3.47
2022-11-11T17:39:00.295Z,3.27
2022-11-11T17:44:02.163Z,2.97
2022-11-11T17:49:04.023Z,3.30
2022-11-11T17:54:09.806Z,3.37
2022-11-11T17:59:11.822Z,4.73
2022-11-11T18:04:13.520Z,4.43
2022-11-11T18:09:15.264Z,3.87
2022-11-11T18:14:17.679Z,3.50
2022-11-11T18:19:19.376Z,4.27
2022-11-11T18:24:21.131Z,4.10
2022-11-11T18:29:23.147Z,4.23
2022-11-11T18:34:25.034Z,3.83
2022-11-11T18:39:26.797Z,4.60
2022-11-11T18:44:28.493Z,4.30
2022-11-11T18:49:30.210Z,3.87
2022-11-11T18:54:31.922Z,4.10
2022-11-11T18:59:33.626Z,4.03
2022-11-11T19:04:35.474Z,4.10
2022-11-11T19:09:37.196Z,4.43
2022-11-11T19:14:39.236Z,4.67
2022-11-11T19:19:40.972Z,4.03
2022-11-11T19:24:42.747Z,5.97
2022-11-11T19:29:44.495Z,4.80
2022-11-11T19:34:46.296Z,5.00
2022-11-11T19:39:48.057Z,5.40
2022-11-11T19:44:49.861Z,6.40
2022-11-11T19:49:51.654Z,6.33
2022-11-11T19:54:53.420Z,5.70
2022-11-11T19:59:55.219Z,5.33
2022-11-11T20:04:56.950Z,4.90
2022-11-11T20:09:58.633Z,4.80
2022-11-11T20:15:00.393Z,5.17
2022-11-11T20:20:02.092Z,7.47
2022-11-11T20:25:04.554Z,7.03
2022-11-11T20:30:07.319Z,4.87
2022-11-11T20:35:09.235Z,5.40
2022-11-11T20:40:13.002Z,4.50
2022-11-11T20:45:14.900Z,4.50
2022-11-11T20:50:16.764Z,4.10
2022-11-11T20:55:18.486Z,4.53
2022-11-11T21:00:20.330Z,4.97
2022-11-11T21:05:22.102Z,4.30
2022-11-11T21:10:23.831Z,4.60
2022-11-11T21:15:25.607Z,4.57
2022-11-11T21:20:27.336Z,4.80
2022-11-11T21:25:31.163Z,4.53
2022-11-11T21:30:33.316Z,4.27
2022-11-11T21:35:35.032Z,4.40
2022-11-11T21:40:36.735Z,4.57
2022-11-11T21:45:38.461Z,4.10
2022-11-11T21:50:40.424Z,3.13
2022-11-11T21:55:42.122Z,3.27
2022-11-11T22:00:43.824Z,3.73
2022-11-11T22:05:45.653Z,3.77
2022-11-11T22:10:47.380Z,3.70
2022-11-11T22:16:04.230Z,4.10
2022-11-11T22:21:09.796Z,3.63
2022-11-11T22:26:12.409Z,3.30
2022-11-11T22:31:17.968Z,3.73
2022-11-11T22:36:20.087Z,3.77
2022-11-11T22:41:30.191Z,3.70
2022-11-11T22:46:34.283Z,4.20
2022-11-11T22:51:36.075Z,4.03
2022-11-11T22:56:37.777Z,3.30
2022-11-11T23:01:39.828Z,3.40
2022-11-11T23:06:42.337Z,3.67
2022-11-11T23:11:45.301Z,4.10
2022-11-11T23:16:48.859Z,4.50
2022-11-11T23:21:50.595Z,5.53
2022-11-11T23:26:52.391Z,4.67
2022-11-11T23:31:54.088Z,3.60
2022-11-11T23:36:55.799Z,3.63
2022-11-11T23:41:57.535Z,4.60
2022-11-11T23:46:59.343Z,4.87
2022-11-11T23:52:01.083Z,4.10
2022-11-11T23:57:02.809Z,4.60
